createdAt,value
2022-08-31T00:02:10.922Z,81.01
2022-08-31T00:04:39.950Z,81.21
2022-08-31T00:07:08.779Z,81.07
2022-08-31T00:09:37.174Z,81.36
2022-08-31T00:12:05.607Z,81.45
2022-08-31T00:14:33.856Z,81.40
2022-08-31T00:17:02.319Z,81.44
2022-08-31T00:19:30.861Z,81.58
2022-08-31T00:21:59.379Z,81.60
2022-08-31T00:24:27.726Z,81.56
2022-08-31T00:26:56.432Z,81.75
2022-08-31T00:29:24.530Z,81.80
2022-08-31T00:31:53.386Z,81.62
2022-08-31T00:34:22.984Z,81.73
2022-08-31T00:36:51.370Z,81.77
2022-08-31T00:39:19.525Z,81.87
2022-08-31T00:41:48.030Z,81.92
2022-08-31T00:44:16.553Z,81.65
2022-08-31T00:46:45.043Z,81.93
2022-08-31T00:49:23.852Z,81.51
2022-08-31T00:51:56.812Z,81.59
2022-08-31T00:54:30.582Z,81.59
2022-08-31T00:56:59.424Z,81.63
2022-08-31T00:59:28.072Z,81.71
2022-08-31T01:03:01.513Z,81.80
2022-08-31T01:05:31.606Z,82.19
2022-08-31T01:08:01.362Z,82.36
2022-08-31T01:10:35.224Z,82.14
2022-08-31T01:13:04.482Z,82.14
2022-08-31T01:15:32.984Z,82.41
2022-08-31T01:18:06.448Z,82.15
2022-08-31T01:20:51.866Z,82.06
2022-08-31T01:23:32.428Z,82.20
2022-08-31T01:26:03.880Z,82.12
2022-08-31T01:28:32.320Z,82.12
2022-08-31T01:31:23.948Z,82.35
2022-08-31T01:33:52.320Z,82.44
2022-08-31T01:36:21.247Z,82.64
2022-08-31T01:38:53.079Z,82.26
2022-08-31T01:41:22.903Z,82.54
2022-08-31T01:43:53.104Z,82.69
2022-08-31T01:46:21.859Z,82.84
2022-08-31T01:48:50.841Z,82.53
2022-08-31T01:51:22.112Z,82.88
2022-08-31T01:53:53.441Z,82.77
2022-08-31T01:56:28.286Z,82.53
2022-08-31T01:58:58.236Z,82.61
2022-08-31T02:01:51.329Z,82.63
2022-08-31T02:04:23.291Z,82.86
2022-08-31T02:06:58.257Z,82.51
2022-08-31T02:09:27.653Z,82.45
2022-08-31T02:11:55.933Z,82.42
2022-08-31T02:14:24.227Z,82.68
2022-08-31T02:16:52.625Z,82.85
2022-08-31T02:19:20.802Z,82.79
2022-08-31T02:21:49.800Z,82.82
2022-08-31T02:24:18.407Z,83.00
2022-08-31T02:26:49.371Z,83.20
2022-08-31T02:29:20.072Z,82.78
2022-08-31T02:31:48.380Z,82.68
2022-08-31T02:34:17.414Z,82.54
2022-08-31T02:36:46.309Z,82.91
2022-08-31T02:39:15.838Z,82.71
2022-08-31T02:41:45.617Z,82.58
2022-08-31T02:44:14.837Z,82.63
2022-08-31T02:46:43.051Z,82.73
2022-08-31T02:49:21.930Z,82.78
2022-08-31T02:51:50.407Z,83.23
2022-08-31T02:54:18.587Z,83.11
2022-08-31T02:56:48.356Z,83.02
2022-08-31T02:59:19.961Z,83.28
2022-08-31T03:01:48.516Z,83.45
2022-08-31T03:04:17.776Z,83.27
2022-08-31T03:06:48.955Z,83.66
2022-08-31T03:09:17.333Z,83.19
2022-08-31T03:11:45.959Z,83.49
2022-08-31T03:14:14.265Z,83.78
2022-08-31T03:16:42.775Z,83.88
2022-08-31T03:19:11.605Z,83.77
2022-08-31T03:21:39.964Z,83.91
2022-08-31T03:24:09.431Z,83.71
2022-08-31T03:26:38.208Z,83.84
2022-08-31T03:29:06.689Z,83.94
2022-08-31T03:31:55.061Z,83.95
2022-08-31T03:34:23.945Z,83.88
2022-08-31T03:36:52.180Z,84.06
2022-08-31T03:39:21.026Z,83.95
2022-08-31T03:41:49.295Z,84.09
2022-08-31T03:44:21.872Z,84.23
2022-08-31T03:46:50.802Z,84.00
2022-08-31T03:49:20.548Z,84.21
2022-08-31T03:52:07.206Z,84.14
2022-08-31T03:54:43.602Z,84.23
2022-08-31T03:57:12.430Z,84.26
2022-08-31T03:59:40.509Z,84.32
2022-08-31T04:02:31.901Z,84.43
2022-08-31T04:05:21.386Z,84.31
2022-08-31T04:08:08.685Z,84.40
2022-08-31T04:11:11.907Z,84.42
2022-08-31T04:13:49.867Z,84.45
2022-08-31T04:16:37.108Z,84.61
2022-08-31T04:19:17.822Z,84.50
2022-08-31T04:21:56.083Z,84.53
2022-08-31T04:24:25.160Z,84.67
2022-08-31T04:26:53.977Z,84.61
2022-08-31T04:29:23.667Z,84.62
2022-08-31T04:31:53.240Z,84.50
2022-08-31T04:34:22.076Z,84.18
2022-08-31T04:36:50.252Z,82.98
2022-08-31T04:39:19.337Z,80.15
2022-08-31T04:41:47.714Z,79.22
2022-08-31T04:44:19.906Z,79.49
2022-08-31T04:46:50.390Z,78.89
2022-08-31T04:49:18.626Z,76.90
2022-08-31T04:51:47.192Z,76.25
2022-08-31T04:54:16.043Z,76.26
2022-08-31T04:56:45.536Z,76.42
2022-08-31T04:59:18.928Z,76.36
2022-08-31T05:02:06.445Z,76.32
2022-08-31T05:04:41.427Z,76.54
2022-08-31T05:07:09.572Z,77.06
2022-08-31T05:09:37.818Z,77.86
2022-08-31T05:12:06.175Z,77.91
2022-08-31T05:14:35.948Z,77.99
2022-08-31T05:17:15.084Z,78.04
2022-08-31T05:19:44.257Z,78.29
2022-08-31T05:22:14.727Z,78.42
2022-08-31T05:24:45.453Z,78.64
2022-08-31T05:27:14.293Z,78.62
2022-08-31T05:29:42.771Z,78.22
2022-08-31T05:32:40.104Z,78.26
2022-08-31T05:35:12.165Z,78.38
2022-08-31T05:37:42.471Z,78.29
2022-08-31T05:40:11.603Z,78.24
2022-08-31T05:42:40.227Z,78.72
2022-08-31T05:45:09.306Z,78.97
2022-08-31T05:47:38.160Z,78.53
2022-08-31T05:50:08.309Z,78.59
2022-08-31T05:52:40.799Z,78.12
2022-08-31T05:55:09.297Z,77.97
2022-08-31T05:57:40.387Z,78.16
2022-08-31T06:00:10.638Z,77.82
2022-08-31T06:02:44.346Z,77.08
2022-08-31T06:05:15.104Z,76.95
2022-08-31T06:07:47.295Z,76.72
2022-08-31T06:10:18.507Z,76.81
2022-08-31T06:12:47.445Z,76.34
2022-08-31T06:15:18.529Z,75.51
2022-08-31T06:17:46.908Z,75.81
2022-08-31T06:20:18.005Z,76.18
2022-08-31T06:22:48.466Z,76.00
2022-08-31T06:25:39.861Z,75.73
2022-08-31T06:28:15.583Z,75.66
2022-08-31T06:30:54.716Z,75.09
2022-08-31T06:33:23.592Z,74.24
2022-08-31T06:36:03.734Z,74.02
2022-08-31T06:38:51.787Z,73.94
2022-08-31T06:41:43.267Z,72.30
2022-08-31T06:44:35.237Z,72.08
2022-08-31T06:47:23.504Z,71.67
2022-08-31T06:49:53.251Z,71.79
2022-08-31T06:52:22.333Z,72.42
2022-08-31T06:55:06.241Z,71.48
2022-08-31T06:57:43.241Z,70.83
2022-08-31T07:00:31.113Z,70.02
2022-08-31T07:03:33.228Z,70.83
2022-08-31T07:06:14.739Z,70.35
2022-08-31T07:08:44.732Z,70.39
2022-08-31T07:11:35.152Z,69.40
2022-08-31T07:14:05.440Z,69.07
2022-08-31T07:16:34.219Z,69.71
2022-08-31T07:19:06.983Z,68.87
2022-08-31T07:21:45.611Z,68.89
2022-08-31T07:24:18.440Z,69.24
2022-08-31T07:26:49.559Z,69.71
2022-08-31T07:29:23.448Z,69.25
2022-08-31T07:31:52.235Z,68.31
2022-08-31T07:34:29.058Z,67.48
2022-08-31T07:37:36.263Z,67.85
2022-08-31T07:40:24.333Z,68.14
2022-08-31T07:42:55.384Z,67.39
2022-08-31T07:45:29.182Z,66.35
2022-08-31T07:48:00.655Z,66.06
2022-08-31T07:50:45.063Z,65.60
2022-08-31T07:53:25.102Z,65.67
2022-08-31T07:56:22.321Z,65.35
2022-08-31T07:58:51.719Z,64.02
2022-08-31T08:01:22.804Z,64.60
2022-08-31T08:03:55.617Z,64.84
2022-08-31T08:06:42.442Z,64.95
2022-08-31T08:09:25.016Z,63.93
2022-08-31T08:12:22.557Z,64.56
2022-08-31T08:15:15.596Z,64.47
2022-08-31T08:17:57.363Z,63.16
2022-08-31T08:20:37.273Z,62.58
2022-08-31T08:23:11.700Z,63.18
2022-08-31T08:26:21.106Z,63.55
2022-08-31T08:29:16.206Z,63.28
2022-08-31T08:31:56.324Z,63.30
2022-08-31T08:34:31.521Z,63.02
2022-08-31T08:37:02.541Z,62.75
2022-08-31T08:39:30.997Z,62.22
2022-08-31T08:42:24.189Z,62.87
2022-08-31T08:44:52.315Z,62.05
2022-08-31T08:47:25.742Z,63.38
2022-08-31T08:50:06.530Z,63.45
2022-08-31T08:52:45.545Z,62.02
2022-08-31T08:55:19.403Z,62.15
2022-08-31T08:57:50.412Z,62.64
2022-08-31T09:00:22.193Z,61.91
2022-08-31T09:03:04.057Z,62.10
2022-08-31T09:06:10.322Z,61.66
2022-08-31T09:08:59.287Z,61.37
2022-08-31T09:11:46.893Z,61.61
2022-08-31T09:14:38.395Z,61.66
2022-08-31T09:17:43.619Z,61.86
2022-08-31T09:20:13.468Z,61.33
2022-08-31T09:22:50.858Z,61.73
2022-08-31T09:25:33.535Z,62.13
2022-08-31T09:28:36.241Z,61.62
2022-08-31T09:31:05.351Z,62.65
2022-08-31T09:33:46.712Z,63.36
2022-08-31T09:36:18.083Z,64.28
2022-08-31T09:38:47.235Z,64.05
2022-08-31T09:41:33.484Z,63.47
2022-08-31T09:44:22.963Z,62.03
2022-08-31T09:46:54.173Z,60.58
2022-08-31T09:49:37.414Z,60.81
2022-08-31T09:52:46.760Z,60.66
2022-08-31T09:55:21.483Z,59.52
2022-08-31T09:58:08.637Z,59.89
2022-08-31T10:00:47.052Z,59.27
2022-08-31T10:03:23.501Z,58.37
2022-08-31T10:05:54.717Z,58.94
2022-08-31T10:08:30.868Z,59.44
2022-08-31T10:11:24.962Z,59.54
2022-08-31T10:14:26.787Z,59.88
2022-08-31T10:17:15.310Z,58.59
2022-08-31T10:20:06.238Z,58.46
2022-08-31T10:22:43.152Z,58.63
2022-08-31T10:25:21.665Z,58.26
2022-08-31T10:28:22.507Z,59.23
2022-08-31T10:30:59.855Z,58.16
2022-08-31T10:34:13.135Z,58.03
2022-08-31T10:36:42.429Z,57.96
2022-08-31T10:39:33.011Z,57.76
2022-08-31T10:42:07.241Z,58.12
2022-08-31T10:44:42.325Z,58.18
2022-08-31T10:47:24.943Z,58.79
2022-08-31T10:50:04.643Z,58.44
2022-08-31T10:52:58.255Z,58.18
2022-08-31T10:55:46.699Z,58.89
2022-08-31T10:58:47.065Z,58.89
2022-08-31T11:01:16.270Z,59.20
2022-08-31T11:04:13.692Z,58.76
2022-08-31T11:06:46.665Z,56.68
2022-08-31T11:09:19.403Z,55.86
2022-08-31T11:11:57.540Z,56.02
2022-08-31T11:14:34.847Z,56.68
2022-08-31T11:17:18.939Z,56.81
2022-08-31T11:20:00.210Z,57.21
2022-08-31T11:22:47.157Z,57.79
2022-08-31T11:25:48.824Z,57.49
2022-08-31T11:28:32.214Z,56.35
2022-08-31T11:31:04.104Z,56.38
2022-08-31T11:33:32.699Z,56.99
2022-08-31T11:36:10.143Z,57.07
2022-08-31T11:38:54.715Z,56.72
2022-08-31T11:41:31.734Z,57.02
2022-08-31T11:44:04.735Z,56.69
2022-08-31T11:46:41.527Z,56.28
2022-08-31T11:49:11.121Z,57.45
2022-08-31T11:51:42.047Z,56.82
2022-08-31T11:54:42.017Z,57.14
2022-08-31T11:57:16.135Z,57.08
2022-08-31T11:59:48.676Z,56.77
2022-08-31T12:02:20.095Z,56.95
2022-08-31T12:05:00.660Z,57.60
2022-08-31T12:07:43.852Z,57.55
2022-08-31T12:10:27.973Z,58.15
2022-08-31T12:13:05.630Z,58.35
2022-08-31T12:15:48.656Z,59.16
2022-08-31T12:18:23.625Z,59.39
2022-08-31T12:21:23.226Z,58.52
2022-08-31T12:24:28.835Z,57.52
2022-08-31T12:27:16.102Z,58.04
2022-08-31T12:29:44.686Z,57.84
2022-08-31T12:32:29.846Z,57.61
2022-08-31T12:35:20.379Z,56.80
2022-08-31T12:38:05.432Z,56.45
2022-08-31T12:40:36.374Z,56.51
2022-08-31T12:43:21.222Z,57.17
2022-08-31T12:45:55.799Z,56.84
2022-08-31T12:48:55.030Z,57.32
2022-08-31T12:51:51.243Z,57.54
2022-08-31T12:54:34.548Z,57.64
2022-08-31T12:57:44.188Z,56.64
2022-08-31T13:00:17.882Z,55.77
2022-08-31T13:02:51.375Z,56.11
2022-08-31T13:05:21.343Z,55.79
2022-08-31T13:07:50.706Z,55.96
2022-08-31T13:10:22.318Z,56.75
2022-08-31T13:13:02.990Z,56.34
2022-08-31T13:15:39.712Z,55.54
2022-08-31T13:18:15.370Z,55.94
2022-08-31T13:20:45.750Z,55.67
2022-08-31T13:23:22.914Z,55.70
2022-08-31T13:26:20.205Z,55.38
2022-08-31T13:28:56.938Z,54.79
2022-08-31T13:31:28.678Z,55.14
2022-08-31T13:34:03.069Z,55.60
2022-08-31T13:36:34.348Z,55.87
2022-08-31T13:39:15.827Z,56.49
2022-08-31T13:42:29.540Z,56.98
2022-08-31T13:45:03.727Z,57.23
2022-08-31T13:47:56.943Z,57.21
2022-08-31T13:50:35.531Z,56.57
2022-08-31T13:55:54.274Z,56.43
2022-08-31T13:58:31.982Z,56.73
2022-08-31T14:01:20.550Z,56.27
2022-08-31T14:03:59.328Z,56.75
2022-08-31T14:06:38.056Z,56.16
2022-08-31T14:09:16.033Z,55.64
2022-08-31T14:12:02.430Z,56.32
2022-08-31T14:14:43.706Z,56.40
2022-08-31T14:17:16.480Z,55.72
2022-08-31T14:19:45.460Z,54.85
2022-08-31T14:22:35.542Z,54.16
2022-08-31T14:25:05.066Z,54.39
2022-08-31T14:27:43.252Z,54.96
2022-08-31T14:30:11.923Z,55.44
2022-08-31T14:32:45.838Z,55.85
2022-08-31T14:35:14.306Z,56.28
2022-08-31T14:37:45.916Z,56.78
2022-08-31T14:40:14.161Z,57.04
2022-08-31T14:42:44.398Z,56.94
2022-08-31T14:45:21.332Z,57.19
2022-08-31T14:47:52.528Z,57.61
2022-08-31T14:50:25.476Z,57.92
2022-08-31T14:52:55.745Z,57.83
2022-08-31T14:55:27.283Z,57.88
2022-08-31T14:58:08.379Z,58.16
2022-08-31T15:00:43.947Z,58.27
2022-08-31T15:03:16.386Z,58.42
2022-08-31T15:05:47.615Z,58.53
2022-08-31T15:08:20.513Z,58.68
2022-08-31T15:11:00.347Z,58.63
2022-08-31T15:13:34.060Z,58.47
2022-08-31T15:16:04.193Z,58.78
2022-08-31T15:18:34.427Z,58.86
2022-08-31T15:21:05.519Z,59.09
2022-08-31T15:23:37.162Z,59.22
2022-08-31T15:26:08.128Z,59.33
2022-08-31T15:28:42.029Z,59.45
2022-08-31T15:31:20.919Z,59.61
2022-08-31T15:33:52.648Z,59.52
2022-08-31T15:36:27.825Z,59.99
2022-08-31T15:38:58.190Z,60.30
2022-08-31T15:41:29.301Z,60.43
2022-08-31T15:43:57.522Z,60.46
2022-08-31T15:46:44.990Z,60.02
2022-08-31T15:49:13.160Z,60.56
2022-08-31T15:51:49.908Z,60.67
2022-08-31T15:54:22.484Z,60.67
2022-08-31T15:56:52.862Z,60.83
2022-08-31T15:59:24.753Z,60.56
2022-08-31T16:01:53.181Z,60.91
2022-08-31T16:04:23.810Z,61.26
2022-08-31T16:06:55.465Z,61.27
2022-08-31T16:09:23.689Z,61.30
2022-08-31T16:11:52.209Z,61.05
2022-08-31T16:14:20.634Z,61.55
2022-08-31T16:16:50.336Z,61.78
2022-08-31T16:19:34.692Z,61.81
2022-08-31T16:22:07.765Z,62.29
2022-08-31T16:24:37.491Z,62.61
2022-08-31T16:27:08.941Z,62.71
2022-08-31T16:29:37.942Z,63.21
2022-08-31T16:32:08.555Z,63.62
2022-08-31T16:34:40.104Z,63.69
2022-08-31T16:37:09.011Z,64.04
2022-08-31T16:39:43.432Z,64.00
2022-08-31T16:42:12.248Z,64.08
2022-08-31T16:44:43.900Z,64.28
2022-08-31T16:47:15.814Z,64.20
2022-08-31T16:49:44.659Z,64.01
2022-08-31T16:52:24.357Z,64.10
2022-08-31T16:54:53.781Z,64.50
2022-08-31T16:57:27.205Z,65.27
2022-08-31T16:59:57.480Z,65.90
2022-08-31T17:02:27.925Z,66.06
2022-08-31T17:05:00.704Z,66.17
2022-08-31T17:07:29.626Z,66.77
2022-08-31T17:10:07.187Z,66.55
2022-08-31T17:12:37.158Z,67.02
2022-08-31T17:15:06.098Z,67.25
2022-08-31T17:17:34.235Z,67.63
2022-08-31T17:20:04.322Z,67.68
2022-08-31T17:22:33.895Z,67.77
2022-08-31T17:25:04.919Z,68.15
2022-08-31T17:27:34.774Z,68.21
2022-08-31T17:30:06.413Z,68.32
2022-08-31T17:32:41.799Z,68.59
2022-08-31T17:35:18.510Z,68.76
2022-08-31T17:37:47.980Z,69.06
2022-08-31T17:40:16.956Z,68.86
2022-08-31T17:42:46.365Z,68.96
2022-08-31T17:45:15.692Z,69.24
2022-08-31T17:47:44.018Z,69.25
2022-08-31T17:50:14.019Z,69.53
2022-08-31T17:52:42.206Z,69.79
2022-08-31T17:55:10.398Z,69.97
2022-08-31T17:57:41.988Z,70.00
2022-08-31T18:00:10.825Z,70.01
2022-08-31T18:02:39.116Z,70.16
2022-08-31T18:05:11.642Z,70.28
2022-08-31T18:07:41.090Z,70.30
2022-08-31T18:10:10.232Z,70.28
2022-08-31T18:12:41.940Z,70.51
2022-08-31T18:15:12.887Z,70.50
2022-08-31T18:17:41.005Z,70.62
2022-08-31T18:20:12.499Z,70.97
2022-08-31T18:22:41.009Z,70.93
2022-08-31T18:25:09.756Z,70.77
2022-08-31T18:27:38.018Z,71.01
2022-08-31T18:30:08.580Z,71.37
2022-08-31T18:32:36.985Z,71.80
2022-08-31T18:35:11.355Z,71.78
2022-08-31T18:37:40.846Z,72.01
2022-08-31T18:40:28.070Z,71.98
2022-08-31T18:43:15.263Z,71.99
2022-08-31T18:45:48.383Z,71.96
2022-08-31T18:48:35.385Z,71.99
2022-08-31T18:51:03.974Z,72.27
2022-08-31T18:53:34.654Z,72.09
2022-08-31T18:56:09.135Z,72.51
2022-08-31T18:58:38.611Z,72.18
2022-08-31T19:01:11.614Z,72.44
2022-08-31T19:03:43.078Z,72.69
2022-08-31T19:06:20.323Z,72.24
2022-08-31T19:08:49.284Z,72.40
2022-08-31T19:11:19.411Z,72.29
2022-08-31T19:13:51.225Z,72.23
2022-08-31T19:16:23.475Z,72.25
2022-08-31T19:18:56.385Z,72.49
2022-08-31T19:21:30.660Z,72.49
2022-08-31T19:24:01.461Z,72.55
2022-08-31T19:26:31.011Z,72.69
2022-08-31T19:29:00.121Z,72.78
2022-08-31T19:31:30.203Z,72.60
2022-08-31T19:33:58.645Z,72.56
2022-08-31T19:36:27.631Z,72.68
2022-08-31T19:38:56.563Z,72.61
2022-08-31T19:41:25.863Z,72.49
2022-08-31T19:44:07.234Z,72.62
2022-08-31T19:46:39.613Z,72.83
2022-08-31T19:49:12.038Z,73.03
2022-08-31T19:51:43.762Z,73.27
2022-08-31T19:54:12.429Z,73.18
2022-08-31T19:56:42.949Z,73.17
2022-08-31T19:59:18.521Z,73.34
2022-08-31T20:01:52.215Z,73.43
2022-08-31T20:04:23.546Z,73.28
2022-08-31T20:06:52.421Z,73.42
2022-08-31T20:09:22.888Z,73.33
2022-08-31T20:11:53.464Z,73.31
2022-08-31T20:14:22.062Z,73.39
2022-08-31T20:16:52.234Z,73.84
2022-08-31T20:19:25.274Z,73.56
2022-08-31T20:22:06.799Z,73.65
2022-08-31T20:24:43.645Z,73.57
2022-08-31T20:27:16.580Z,73.85
2022-08-31T20:29:48.328Z,74.03
2022-08-31T20:32:16.927Z,74.04
2022-08-31T20:34:45.115Z,74.00
2022-08-31T20:37:13.359Z,74.25
2022-08-31T20:39:42.303Z,74.09
2022-08-31T20:42:10.461Z,74.20
2022-08-31T20:44:38.713Z,74.25
2022-08-31T20:47:28.166Z,74.53
2022-08-31T20:50:01.949Z,74.67
2022-08-31T20:52:34.933Z,74.90
2022-08-31T20:55:08.061Z,74.65
2022-08-31T20:57:38.984Z,74.99
2022-08-31T21:00:10.565Z,74.83
2022-08-31T21:02:41.789Z,74.74
2022-08-31T21:05:36.435Z,74.89
2022-08-31T21:07:59.971Z,75.09
2022-08-31T21:10:37.910Z,74.95
2022-08-31T21:13:12.696Z,75.14
2022-08-31T21:15:44.197Z,75.30
2022-08-31T21:18:19.776Z,75.41
2022-08-31T21:20:49.015Z,75.57
2022-08-31T21:23:19.593Z,75.65
2022-08-31T21:25:48.062Z,75.59
2022-08-31T21:28:18.046Z,75.58
2022-08-31T21:30:49.702Z,75.70
2022-08-31T21:33:19.083Z,75.47
2022-08-31T21:35:47.906Z,75.80
2022-08-31T21:38:16.272Z,75.83
2022-08-31T21:40:49.834Z,76.12
2022-08-31T21:43:18.739Z,76.21
2022-08-31T21:45:47.097Z,76.29
2022-08-31T21:48:15.198Z,76.15
2022-08-31T21:50:44.140Z,76.23
2022-08-31T21:53:14.715Z,76.35
2022-08-31T21:55:42.827Z,76.39
2022-08-31T21:58:11.170Z,76.50
2022-08-31T22:00:42.241Z,76.51
2022-08-31T22:03:10.736Z,76.66
2022-08-31T22:05:41.756Z,76.38
2022-08-31T22:08:10.122Z,76.45
2022-08-31T22:10:42.767Z,76.49
2022-08-31T22:13:12.988Z,76.43
2022-08-31T22:15:42.707Z,76.51
2022-08-31T22:18:58.443Z,76.77
2022-08-31T22:20:59.977Z,76.70
2022-08-31T22:23:28.414Z,76.71
2022-08-31T22:25:57.034Z,76.63
2022-08-31T22:28:27.769Z,76.90
2022-08-31T22:30:56.525Z,76.94
2022-08-31T22:33:26.851Z,77.03
2022-08-31T22:35:55.037Z,77.00
2022-08-31T22:38:24.034Z,77.15
2022-08-31T22:40:52.669Z,77.05
2022-08-31T22:43:20.951Z,77.12
2022-08-31T22:45:49.561Z,77.29
2022-08-31T22:48:18.064Z,77.33
2022-08-31T22:50:46.436Z,77.21
2022-08-31T22:53:14.926Z,77.26
2022-08-31T22:55:43.241Z,77.24
2022-08-31T22:58:12.913Z,77.47
2022-08-31T23:00:42.133Z,77.30
2022-08-31T23:03:14.934Z,77.45
2022-08-31T23:05:44.677Z,77.53
2022-08-31T23:08:14.885Z,77.53
2022-08-31T23:10:44.319Z,77.51
2022-08-31T23:13:12.725Z,77.65
2022-08-31T23:15:41.426Z,77.48
2022-08-31T23:18:10.666Z,77.71
2022-08-31T23:20:39.010Z,77.88
2022-08-31T23:23:07.120Z,77.99
2022-08-31T23:25:36.003Z,78.20
2022-08-31T23:28:04.320Z,78.17
2022-08-31T23:30:32.700Z,78.32
2022-08-31T23:33:02.337Z,78.31
2022-08-31T23:35:30.906Z,78.48
2022-08-31T23:38:00.796Z,78.45
2022-08-31T23:40:31.168Z,78.46
2022-08-31T23:43:00.491Z,78.59
2022-08-31T23:45:28.600Z,78.97
2022-08-31T23:47:57.821Z,79.03
2022-08-31T23:50:26.130Z,78.97
2022-08-31T23:52:54.214Z,78.74
2022-08-31T23:55:26.934Z,78.86
2022-08-31T23:57:57.640Z,78.84
